sensor_id;sensor_type;location;lat;lon;timestamp;temperature;humidity
1413;DHT22;701;52.526;13.408;2023-08-08T00:01:07;15.20;15.90
1413;DHT22;701;52.526;13.408;2023-08-08T00:03:34;15.20;16.30
1413;DHT22;701;52.526;13.408;2023-08-08T00:06:00;15.10;16.40
1413;DHT22;701;52.526;13.408;2023-08-08T00:08:25;15.00;16.50
1413;DHT22;701;52.526;13.408;2023-08-08T00:10:51;15.00;16.50
1413;DHT22;701;52.526;13.408;2023-08-08T00:13:17;14.90;16.40
1413;DHT22;701;52.526;13.408;2023-08-08T00:15:43;14.80;16.40
1413;DHT22;701;52.526;13.408;2023-08-08T00:18:09;14.80;16.90
1413;DHT22;701;52.526;13.408;2023-08-08T00:20:35;14.80;17.00
1413;DHT22;701;52.526;13.408;2023-08-08T00:23:00;14.70;17.30
1413;DHT22;701;52.526;13.408;2023-08-08T00:25:26;14.70;17.70
1413;DHT22;701;52.526;13.408;2023-08-08T00:27:52;14.60;17.80
1413;DHT22;701;52.526;13.408;2023-08-08T00:30:18;14.50;17.60
1413;DHT22;701;52.526;13.408;2023-08-08T00:32:43;14.50;18.00
1413;DHT22;701;52.526;13.408;2023-08-08T00:35:09;14.50;18.10
1413;DHT22;701;52.526;13.408;2023-08-08T00:37:35;14.50;18.30
1413;DHT22;701;52.526;13.408;2023-08-08T00:40:01;14.40;18.70
1413;DHT22;701;52.526;13.408;2023-08-08T00:42:26;14.40;18.40
1413;DHT22;701;52.526;13.408;2023-08-08T00:44:53;14.40;18.70
1413;DHT22;701;52.526;13.408;2023-08-08T00:47:18;14.30;18.80
1413;DHT22;701;52.526;13.408;2023-08-08T00:49:45;14.30;19.00
1413;DHT22;701;52.526;13.408;2023-08-08T00:52:14;14.30;19.00
1413;DHT22;701;52.526;13.408;2023-08-08T00:54:40;14.20;19.10
1413;DHT22;701;52.526;13.408;2023-08-08T00:57:06;14.20;19.50
1413;DHT22;701;52.526;13.408;2023-08-08T00:59:32;14.10;19.40
1413;DHT22;701;52.526;13.408;2023-08-08T01:01:58;14.10;19.60
1413;DHT22;701;52.526;13.408;2023-08-08T01:04:25;14.10;19.60
1413;DHT22;701;52.526;13.408;2023-08-08T01:07:01;14.10;19.60
1413;DHT22;701;52.526;13.408;2023-08-08T01:09:37;14.00;19.50
1413;DHT22;701;52.526;13.408;2023-08-08T01:12:06;14.00;19.60
1413;DHT22;701;52.526;13.408;2023-08-08T01:14:34;14.00;19.50
1413;DHT22;701;52.526;13.408;2023-08-08T01:17:02;14.00;19.50
1413;DHT22;701;52.526;13.408;2023-08-08T01:19:30;14.00;19.50
1413;DHT22;701;52.526;13.408;2023-08-08T01:22:01;13.90;19.50
1413;DHT22;701;52.526;13.408;2023-08-08T01:24:30;13.90;19.50
1413;DHT22;701;52.526;13.408;2023-08-08T01:26:59;13.90;20.00
1413;DHT22;701;52.526;13.408;2023-08-08T01:29:26;13.90;19.50
1413;DHT22;701;52.526;13.408;2023-08-08T01:31:53;13.90;19.50
1413;DHT22;701;52.526;13.408;2023-08-08T01:34:19;13.90;19.50
1413;DHT22;701;52.526;13.408;2023-08-08T01:39:32;13.80;19.60
1413;DHT22;701;52.526;13.408;2023-08-08T01:41:59;13.80;19.40
1413;DHT22;701;52.526;13.408;2023-08-08T01:44:26;13.80;19.70
1413;DHT22;701;52.526;13.408;2023-08-08T01:46:53;13.70;19.50
1413;DHT22;701;52.526;13.408;2023-08-08T01:49:19;13.70;19.80
1413;DHT22;701;52.526;13.408;2023-08-08T01:51:45;13.70;19.70
1413;DHT22;701;52.526;13.408;2023-08-08T01:54:10;13.80;19.70
1413;DHT22;701;52.526;13.408;2023-08-08T01:56:37;13.80;19.40
1413;DHT22;701;52.526;13.408;2023-08-08T01:59:02;13.80;19.40
1413;DHT22;701;52.526;13.408;2023-08-08T02:01:28;13.90;20.10
1413;DHT22;701;52.526;13.408;2023-08-08T02:03:54;13.90;19.50
1413;DHT22;701;52.526;13.408;2023-08-08T02:06:20;14.00;19.10
1413;DHT22;701;52.526;13.408;2023-08-08T02:08:45;14.00;18.70
1413;DHT22;701;52.526;13.408;2023-08-08T02:11:11;14.10;18.50
1413;DHT22;701;52.526;13.408;2023-08-08T02:13:37;14.10;18.30
1413;DHT22;701;52.526;13.408;2023-08-08T02:16:03;14.20;18.10
1413;DHT22;701;52.526;13.408;2023-08-08T02:18:29;14.20;17.90
1413;DHT22;701;52.526;13.408;2023-08-08T02:20:55;14.20;17.70
1413;DHT22;701;52.526;13.408;2023-08-08T02:23:21;14.20;17.70
1413;DHT22;701;52.526;13.408;2023-08-08T02:25:47;14.20;17.60
1413;DHT22;701;52.526;13.408;2023-08-08T02:28:12;14.20;17.50
1413;DHT22;701;52.526;13.408;2023-08-08T02:30:38;14.30;17.60
1413;DHT22;701;52.526;13.408;2023-08-08T02:33:04;14.30;17.50
1413;DHT22;701;52.526;13.408;2023-08-08T02:35:30;14.30;17.40
1413;DHT22;701;52.526;13.408;2023-08-08T02:37:56;14.30;17.30
1413;DHT22;701;52.526;13.408;2023-08-08T02:40:22;14.40;17.40
1413;DHT22;701;52.526;13.408;2023-08-08T02:42:52;14.40;17.40
1413;DHT22;701;52.526;13.408;2023-08-08T02:45:19;14.30;17.40
1413;DHT22;701;52.526;13.408;2023-08-08T02:47:44;14.30;17.60
1413;DHT22;701;52.526;13.408;2023-08-08T02:50:10;14.20;17.70
1413;DHT22;701;52.526;13.408;2023-08-08T02:52:36;14.10;18.00
1413;DHT22;701;52.526;13.408;2023-08-08T02:55:03;14.00;18.40
1413;DHT22;701;52.526;13.408;2023-08-08T02:57:29;14.00;18.70
1413;DHT22;701;52.526;13.408;2023-08-08T02:59:55;13.90;18.90
1413;DHT22;701;52.526;13.408;2023-08-08T03:02:21;13.80;19.40
1413;DHT22;701;52.526;13.408;2023-08-08T03:04:48;13.80;19.40
1413;DHT22;701;52.526;13.408;2023-08-08T03:07:14;13.80;19.40
1413;DHT22;701;52.526;13.408;2023-08-08T03:09:40;13.70;19.90
1413;DHT22;701;52.526;13.408;2023-08-08T03:12:08;13.70;20.20
1413;DHT22;701;52.526;13.408;2023-08-08T03:14:35;13.70;20.00
1413;DHT22;701;52.526;13.408;2023-08-08T03:17:02;13.60;20.30
1413;DHT22;701;52.526;13.408;2023-08-08T03:19:28;13.60;20.50
1413;DHT22;701;52.526;13.408;2023-08-08T03:21:54;13.50;20.90
1413;DHT22;701;52.526;13.408;2023-08-08T03:24:20;13.50;20.90
1413;DHT22;701;52.526;13.408;2023-08-08T03:26:46;13.50;21.20
1413;DHT22;701;52.526;13.408;2023-08-08T03:29:12;13.50;21.70
1413;DHT22;701;52.526;13.408;2023-08-08T03:31:43;13.50;21.70
1413;DHT22;701;52.526;13.408;2023-08-08T03:34:09;13.50;21.80
1413;DHT22;701;52.526;13.408;2023-08-08T03:36:34;13.50;22.10
1413;DHT22;701;52.526;13.408;2023-08-08T03:39:01;13.50;22.10
1413;DHT22;701;52.526;13.408;2023-08-08T03:41:26;13.50;22.40
1413;DHT22;701;52.526;13.408;2023-08-08T03:43:52;13.40;22.70
1413;DHT22;701;52.526;13.408;2023-08-08T03:46:18;13.40;22.70
1413;DHT22;701;52.526;13.408;2023-08-08T03:48:44;13.40;22.70
1413;DHT22;701;52.526;13.408;2023-08-08T03:51:09;13.50;22.90
1413;DHT22;701;52.526;13.408;2023-08-08T03:53:37;13.50;22.80
1413;DHT22;701;52.526;13.408;2023-08-08T03:56:02;13.60;22.90
1413;DHT22;701;52.526;13.408;2023-08-08T03:58:29;13.70;23.00
1413;DHT22;701;52.526;13.408;2023-08-08T04:00:55;13.70;23.00
1413;DHT22;701;52.526;13.408;2023-08-08T04:03:22;13.80;23.00
1413;DHT22;701;52.526;13.408;2023-08-08T04:05:48;13.90;23.10
1413;DHT22;701;52.526;13.408;2023-08-08T04:08:15;14.00;22.90
1413;DHT22;701;52.526;13.408;2023-08-08T04:10:41;14.10;22.60
1413;DHT22;701;52.526;13.408;2023-08-08T04:13:08;14.20;22.40
1413;DHT22;701;52.526;13.408;2023-08-08T04:15:35;14.30;22.20
1413;DHT22;701;52.526;13.408;2023-08-08T04:18:01;14.40;22.00
1413;DHT22;701;52.526;13.408;2023-08-08T04:20:27;14.40;21.70
1413;DHT22;701;52.526;13.408;2023-08-08T04:22:52;14.50;21.60
1413;DHT22;701;52.526;13.408;2023-08-08T04:25:18;14.60;21.40
1413;DHT22;701;52.526;13.408;2023-08-08T04:27:46;14.60;21.20
1413;DHT22;701;52.526;13.408;2023-08-08T04:30:12;14.60;21.10
1413;DHT22;701;52.526;13.408;2023-08-08T04:32:38;14.60;21.20
1413;DHT22;701;52.526;13.408;2023-08-08T04:35:04;14.60;21.30
1413;DHT22;701;52.526;13.408;2023-08-08T04:37:30;14.60;21.20
1413;DHT22;701;52.526;13.408;2023-08-08T04:39:56;14.60;21.20
1413;DHT22;701;52.526;13.408;2023-08-08T04:42:21;14.60;21.20
1413;DHT22;701;52.526;13.408;2023-08-08T04:44:47;14.60;21.40
1413;DHT22;701;52.526;13.408;2023-08-08T04:47:13;14.60;21.30
1413;DHT22;701;52.526;13.408;2023-08-08T04:49:39;14.60;21.40
1413;DHT22;701;52.526;13.408;2023-08-08T04:52:05;14.60;21.40
1413;DHT22;701;52.526;13.408;2023-08-08T04:54:31;14.70;21.30
1413;DHT22;701;52.526;13.408;2023-08-08T04:56:56;14.80;21.20
1413;DHT22;701;52.526;13.408;2023-08-08T04:59:23;14.90;21.00
1413;DHT22;701;52.526;13.408;2023-08-08T05:01:48;15.00;20.90
1413;DHT22;701;52.526;13.408;2023-08-08T05:04:14;15.00;20.70
1413;DHT22;701;52.526;13.408;2023-08-08T05:06:40;15.10;20.50
1413;DHT22;701;52.526;13.408;2023-08-08T05:09:05;15.20;20.30
1413;DHT22;701;52.526;13.408;2023-08-08T05:11:35;15.20;20.40
1413;DHT22;701;52.526;13.408;2023-08-08T05:14:01;15.30;20.40
1413;DHT22;701;52.526;13.408;2023-08-08T05:16:27;15.30;20.20
1413;DHT22;701;52.526;13.408;2023-08-08T05:18:53;15.30;20.20
1413;DHT22;701;52.526;13.408;2023-08-08T05:21:21;15.30;20.20
1413;DHT22;701;52.526;13.408;2023-08-08T05:23:47;15.30;20.30
1413;DHT22;701;52.526;13.408;2023-08-08T05:26:14;15.30;20.20
1413;DHT22;701;52.526;13.408;2023-08-08T05:28:41;15.30;20.10
1413;DHT22;701;52.526;13.408;2023-08-08T05:31:07;15.30;20.40
1413;DHT22;701;52.526;13.408;2023-08-08T05:33:32;15.30;20.40
1413;DHT22;701;52.526;13.408;2023-08-08T05:35:58;15.30;20.40
1413;DHT22;701;52.526;13.408;2023-08-08T05:38:24;15.30;20.40
1413;DHT22;701;52.526;13.408;2023-08-08T05:40:50;15.40;20.50
1413;DHT22;701;52.526;13.408;2023-08-08T05:43:17;15.60;20.20
1413;DHT22;701;52.526;13.408;2023-08-08T05:45:45;15.80;19.40
1413;DHT22;701;52.526;13.408;2023-08-08T05:48:11;16.20;18.70
1413;DHT22;701;52.526;13.408;2023-08-08T05:50:40;16.50;18.20
1413;DHT22;701;52.526;13.408;2023-08-08T05:53:06;16.90;17.80
1413;DHT22;701;52.526;13.408;2023-08-08T05:55:32;17.20;16.80
1413;DHT22;701;52.526;13.408;2023-08-08T05:57:58;17.40;15.90
1413;DHT22;701;52.526;13.408;2023-08-08T06:00:24;17.50;15.10
1413;DHT22;701;52.526;13.408;2023-08-08T06:02:50;17.60;15.30
1413;DHT22;701;52.526;13.408;2023-08-08T06:05:21;17.60;14.50
1413;DHT22;701;52.526;13.408;2023-08-08T06:07:47;17.50;14.80
1413;DHT22;701;52.526;13.408;2023-08-08T06:10:13;17.60;14.70
1413;DHT22;701;52.526;13.408;2023-08-08T06:12:38;17.70;14.60
1413;DHT22;701;52.526;13.408;2023-08-08T06:15:05;17.90;14.50
1413;DHT22;701;52.526;13.408;2023-08-08T06:17:30;18.10;14.20
1413;DHT22;701;52.526;13.408;2023-08-08T06:19:56;18.20;13.30
1413;DHT22;701;52.526;13.408;2023-08-08T06:22:23;18.30;13.10
1413;DHT22;701;52.526;13.408;2023-08-08T06:24:49;18.30;13.10
1413;DHT22;701;52.526;13.408;2023-08-08T06:27:14;18.40;13.10
1413;DHT22;701;52.526;13.408;2023-08-08T06:29:40;18.50;12.70
1413;DHT22;701;52.526;13.408;2023-08-08T06:32:07;18.60;12.50
1413;DHT22;701;52.526;13.408;2023-08-08T06:34:33;18.70;12.20
1413;DHT22;701;52.526;13.408;2023-08-08T06:36:59;18.90;12.10
1413;DHT22;701;52.526;13.408;2023-08-08T06:39:24;19.10;11.70
1413;DHT22;701;52.526;13.408;2023-08-08T06:41:51;19.20;11.80
1413;DHT22;701;52.526;13.408;2023-08-08T06:44:32;19.20;11.80
1413;DHT22;701;52.526;13.408;2023-08-08T06:46:58;19.20;11.80
1413;DHT22;701;52.526;13.408;2023-08-08T06:49:23;19.10;11.70
1413;DHT22;701;52.526;13.408;2023-08-08T06:51:49;19.10;12.30
1413;DHT22;701;52.526;13.408;2023-08-08T06:54:15;19.00;11.70
1413;DHT22;701;52.526;13.408;2023-08-08T06:56:40;18.90;11.60
1413;DHT22;701;52.526;13.408;2023-08-08T06:59:06;18.90;11.60
1413;DHT22;701;52.526;13.408;2023-08-08T07:01:32;19.00;12.20
1413;DHT22;701;52.526;13.408;2023-08-08T07:03:59;19.10;11.70
1413;DHT22;701;52.526;13.408;2023-08-08T07:06:25;19.30;11.60
1413;DHT22;701;52.526;13.408;2023-08-08T07:08:51;19.40;11.20
1413;DHT22;701;52.526;13.408;2023-08-08T07:11:17;19.60;11.00
1413;DHT22;701;52.526;13.408;2023-08-08T07:13:42;19.80;10.30
1413;DHT22;701;52.526;13.408;2023-08-08T07:16:08;20.10;9.80
1413;DHT22;701;52.526;13.408;2023-08-08T07:18:34;20.40;9.20
1413;DHT22;701;52.526;13.408;2023-08-08T07:20:59;20.70;8.50
1413;DHT22;701;52.526;13.408;2023-08-08T07:23:26;21.20;8.30
1413;DHT22;701;52.526;13.408;2023-08-08T07:25:51;21.80;7.60
1413;DHT22;701;52.526;13.408;2023-08-08T07:28:17;22.10;6.00
1413;DHT22;701;52.526;13.408;2023-08-08T07:30:43;22.20;5.40
1413;DHT22;701;52.526;13.408;2023-08-08T07:33:09;22.20;5.70
1413;DHT22;701;52.526;13.408;2023-08-08T07:35:35;22.20;5.80
1413;DHT22;701;52.526;13.408;2023-08-08T07:38:01;22.10;5.30
1413;DHT22;701;52.526;13.408;2023-08-08T07:40:27;21.90;5.20
1413;DHT22;701;52.526;13.408;2023-08-08T07:42:53;22.10;5.30
1413;DHT22;701;52.526;13.408;2023-08-08T07:45:19;23.20;4.40
1413;DHT22;701;52.526;13.408;2023-08-08T07:47:45;24.60;2.80
1413;DHT22;701;52.526;13.408;2023-08-08T07:50:11;25.70;1.00
1413;DHT22;701;52.526;13.408;2023-08-08T07:52:38;27.10;1.00
1413;DHT22;701;52.526;13.408;2023-08-08T07:55:04;27.90;1.00
1413;DHT22;701;52.526;13.408;2023-08-08T07:57:32;28.00;1.00
1413;DHT22;701;52.526;13.408;2023-08-08T08:00:04;28.00;1.00
1413;DHT22;701;52.526;13.408;2023-08-08T08:02:41;27.80;1.00
1413;DHT22;701;52.526;13.408;2023-08-08T08:05:08;27.80;1.00
1413;DHT22;701;52.526;13.408;2023-08-08T08:07:37;28.40;1.00
1413;DHT22;701;52.526;13.408;2023-08-08T08:10:04;29.00;1.00
1413;DHT22;701;52.526;13.408;2023-08-08T08:12:31;29.70;1.00
1413;DHT22;701;52.526;13.408;2023-08-08T08:14:57;30.70;1.00
1413;DHT22;701;52.526;13.408;2023-08-08T08:17:23;31.30;1.00
1413;DHT22;701;52.526;13.408;2023-08-08T08:19:51;31.80;1.00
1413;DHT22;701;52.526;13.408;2023-08-08T08:22:17;32.30;1.00
1413;DHT22;701;52.526;13.408;2023-08-08T08:24:43;33.00;1.00
1413;DHT22;701;52.526;13.408;2023-08-08T08:27:08;33.50;1.00
1413;DHT22;701;52.526;13.408;2023-08-08T08:29:34;34.10;1.00
1413;DHT22;701;52.526;13.408;2023-08-08T08:32:00;34.70;1.00
1413;DHT22;701;52.526;13.408;2023-08-08T08:34:25;34.90;1.00
1413;DHT22;701;52.526;13.408;2023-08-08T08:36:51;34.70;1.00
1413;DHT22;701;52.526;13.408;2023-08-08T08:39:17;34.40;1.00
1413;DHT22;701;52.526;13.408;2023-08-08T08:41:46;34.50;1.00
1413;DHT22;701;52.526;13.408;2023-08-08T08:44:13;34.60;1.00
1413;DHT22;701;52.526;13.408;2023-08-08T08:46:40;34.10;1.00
1413;DHT22;701;52.526;13.408;2023-08-08T08:49:07;33.20;1.00
1413;DHT22;701;52.526;13.408;2023-08-08T08:51:38;32.50;1.00
1413;DHT22;701;52.526;13.408;2023-08-08T08:54:04;32.20;1.00
1413;DHT22;701;52.526;13.408;2023-08-08T08:56:31;32.10;1.00
1413;DHT22;701;52.526;13.408;2023-08-08T08:58:59;32.50;1.00
1413;DHT22;701;52.526;13.408;2023-08-08T09:01:25;33.00;1.00
1413;DHT22;701;52.526;13.408;2023-08-08T09:03:53;32.90;1.00
1413;DHT22;701;52.526;13.408;2023-08-08T09:06:19;32.70;1.00
1413;DHT22;701;52.526;13.408;2023-08-08T09:08:46;32.60;1.00
1413;DHT22;701;52.526;13.408;2023-08-08T09:11:13;32.30;1.00
1413;DHT22;701;52.526;13.408;2023-08-08T09:13:41;32.00;1.00
1413;DHT22;701;52.526;13.408;2023-08-08T09:16:07;31.90;1.00
1413;DHT22;701;52.526;13.408;2023-08-08T09:18:37;31.40;1.00
1413;DHT22;701;52.526;13.408;2023-08-08T09:21:04;30.70;1.00
1413;DHT22;701;52.526;13.408;2023-08-08T09:23:30;30.20;1.00
1413;DHT22;701;52.526;13.408;2023-08-08T09:25:56;29.80;1.00
1413;DHT22;701;52.526;13.408;2023-08-08T09:28:22;29.80;1.00
1413;DHT22;701;52.526;13.408;2023-08-08T09:30:48;29.80;1.00
1413;DHT22;701;52.526;13.408;2023-08-08T09:33:14;29.50;1.00
1413;DHT22;701;52.526;13.408;2023-08-08T09:35:40;29.30;1.00
1413;DHT22;701;52.526;13.408;2023-08-08T09:38:06;29.10;1.00
1413;DHT22;701;52.526;13.408;2023-08-08T09:40:33;28.70;1.00
1413;DHT22;701;52.526;13.408;2023-08-08T09:42:58;28.20;1.00
1413;DHT22;701;52.526;13.408;2023-08-08T09:45:25;28.00;1.00
1413;DHT22;701;52.526;13.408;2023-08-08T09:47:51;27.90;1.00
1413;DHT22;701;52.526;13.408;2023-08-08T09:50:18;28.00;1.00
1413;DHT22;701;52.526;13.408;2023-08-08T09:52:46;28.50;1.00
1413;DHT22;701;52.526;13.408;2023-08-08T09:55:13;29.40;1.00
1413;DHT22;701;52.526;13.408;2023-08-08T09:57:39;29.70;1.00
1413;DHT22;701;52.526;13.408;2023-08-08T10:00:07;29.30;1.00
1413;DHT22;701;52.526;13.408;2023-08-08T10:02:37;28.50;1.00
1413;DHT22;701;52.526;13.408;2023-08-08T10:05:04;27.60;1.00
1413;DHT22;701;52.526;13.408;2023-08-08T10:07:30;26.70;1.00
1413;DHT22;701;52.526;13.408;2023-08-08T10:09:57;25.80;1.00
1413;DHT22;701;52.526;13.408;2023-08-08T10:12:25;24.90;1.00
1413;DHT22;701;52.526;13.408;2023-08-08T10:14:52;24.20;1.00
1413;DHT22;701;52.526;13.408;2023-08-08T10:17:18;23.70;1.80
1413;DHT22;701;52.526;13.408;2023-08-08T10:19:54;23.50;2.50
1413;DHT22;701;52.526;13.408;2023-08-08T10:22:24;23.40;2.90
1413;DHT22;701;52.526;13.408;2023-08-08T10:24:54;23.30;3.00
1413;DHT22;701;52.526;13.408;2023-08-08T10:27:35;23.10;3.40
1413;DHT22;701;52.526;13.408;2023-08-08T10:30:07;23.00;4.20
1413;DHT22;701;52.526;13.408;2023-08-08T10:32:43;22.80;4.10
1413;DHT22;701;52.526;13.408;2023-08-08T10:35:11;23.00;4.70
1413;DHT22;701;52.526;13.408;2023-08-08T10:37:38;23.30;3.90
1413;DHT22;701;52.526;13.408;2023-08-08T10:40:04;23.90;3.40
1413;DHT22;701;52.526;13.408;2023-08-08T10:42:33;24.50;2.00
1413;DHT22;701;52.526;13.408;2023-08-08T10:45:08;25.20;1.00
1413;DHT22;701;52.526;13.408;2023-08-08T10:47:36;25.70;1.00
1413;DHT22;701;52.526;13.408;2023-08-08T10:50:06;25.80;1.00
1413;DHT22;701;52.526;13.408;2023-08-08T10:52:54;25.60;1.00
1413;DHT22;701;52.526;13.408;2023-08-08T10:58:08;24.50;1.00
1413;DHT22;701;52.526;13.408;2023-08-08T11:00:36;24.10;1.00
1413;DHT22;701;52.526;13.408;2023-08-08T11:03:02;24.00;1.00
1413;DHT22;701;52.526;13.408;2023-08-08T11:05:34;24.10;1.00
1413;DHT22;701;52.526;13.408;2023-08-08T11:08:02;24.20;1.00
1413;DHT22;701;52.526;13.408;2023-08-08T11:10:28;24.30;1.00
1413;DHT22;701;52.526;13.408;2023-08-08T11:12:58;24.40;1.00
1413;DHT22;701;52.526;13.408;2023-08-08T11:15:25;24.30;1.00
1413;DHT22;701;52.526;13.408;2023-08-08T11:17:55;24.30;1.00
1413;DHT22;701;52.526;13.408;2023-08-08T11:20:24;24.30;1.00
1413;DHT22;701;52.526;13.408;2023-08-08T11:22:53;24.20;1.00
1413;DHT22;701;52.526;13.408;2023-08-08T11:25:19;24.20;1.00
1413;DHT22;701;52.526;13.408;2023-08-08T11:27:52;24.30;1.00
1413;DHT22;701;52.526;13.408;2023-08-08T11:30:19;24.40;1.00
1413;DHT22;701;52.526;13.408;2023-08-08T11:32:46;24.20;1.00
1413;DHT22;701;52.526;13.408;2023-08-08T11:35:16;23.90;1.00
1413;DHT22;701;52.526;13.408;2023-08-08T11:37:42;24.00;1.00
1413;DHT22;701;52.526;13.408;2023-08-08T11:40:09;24.00;1.00
1413;DHT22;701;52.526;13.408;2023-08-08T11:42:35;23.90;1.00
1413;DHT22;701;52.526;13.408;2023-08-08T11:45:01;23.80;1.00
1413;DHT22;701;52.526;13.408;2023-08-08T11:47:30;23.80;1.00
1413;DHT22;701;52.526;13.408;2023-08-08T11:50:04;23.60;1.00
1413;DHT22;701;52.526;13.408;2023-08-08T11:52:30;23.60;1.00
1413;DHT22;701;52.526;13.408;2023-08-08T11:54:58;23.50;1.00
1413;DHT22;701;52.526;13.408;2023-08-08T11:57:26;23.30;1.00
1413;DHT22;701;52.526;13.408;2023-08-08T11:59:53;23.20;1.00
1413;DHT22;701;52.526;13.408;2023-08-08T12:02:19;23.00;1.00
1413;DHT22;701;52.526;13.408;2023-08-08T12:04:45;22.90;1.00
1413;DHT22;701;52.526;13.408;2023-08-08T12:07:11;22.70;1.00
1413;DHT22;701;52.526;13.408;2023-08-08T12:09:37;22.50;1.00
1413;DHT22;701;52.526;13.408;2023-08-08T12:12:03;22.30;1.10
1413;DHT22;701;52.526;13.408;2023-08-08T12:14:30;22.10;1.20
1413;DHT22;701;52.526;13.408;2023-08-08T12:16:55;21.90;1.80
1413;DHT22;701;52.526;13.408;2023-08-08T12:19:25;21.70;1.70
1413;DHT22;701;52.526;13.408;2023-08-08T12:21:51;21.60;2.30
1413;DHT22;701;52.526;13.408;2023-08-08T12:24:20;21.50;2.20
1413;DHT22;701;52.526;13.408;2023-08-08T12:26:46;21.40;2.50
1413;DHT22;701;52.526;13.408;2023-08-08T12:29:13;21.40;2.60
1413;DHT22;701;52.526;13.408;2023-08-08T12:31:38;21.40;2.50
1413;DHT22;701;52.526;13.408;2023-08-08T12:34:05;21.40;2.80
1413;DHT22;701;52.526;13.408;2023-08-08T12:36:31;21.50;2.80
1413;DHT22;701;52.526;13.408;2023-08-08T12:38:57;21.70;2.50
1413;DHT22;701;52.526;13.408;2023-08-08T12:41:23;21.90;1.90
1413;DHT22;701;52.526;13.408;2023-08-08T12:43:51;22.10;2.00
1413;DHT22;701;52.526;13.408;2023-08-08T12:46:17;22.10;1.40
1413;DHT22;701;52.526;13.408;2023-08-08T12:48:42;22.10;1.10
1413;DHT22;701;52.526;13.408;2023-08-08T12:51:11;22.20;1.00
1413;DHT22;701;52.526;13.408;2023-08-08T12:53:37;22.30;1.00
1413;DHT22;701;52.526;13.408;2023-08-08T12:56:03;22.50;1.00
1413;DHT22;701;52.526;13.408;2023-08-08T12:58:28;22.60;1.00
1413;DHT22;701;52.526;13.408;2023-08-08T13:00:54;22.80;1.00
1413;DHT22;701;52.526;13.408;2023-08-08T13:03:20;22.80;1.00
1413;DHT22;701;52.526;13.408;2023-08-08T13:05:46;22.90;1.00
1413;DHT22;701;52.526;13.408;2023-08-08T13:08:12;22.80;1.00
1413;DHT22;701;52.526;13.408;2023-08-08T13:10:39;23.00;1.00
1413;DHT22;701;52.526;13.408;2023-08-08T13:13:05;23.10;1.00
1413;DHT22;701;52.526;13.408;2023-08-08T13:15:31;23.10;1.00
1413;DHT22;701;52.526;13.408;2023-08-08T13:17:57;23.10;1.00
1413;DHT22;701;52.526;13.408;2023-08-08T13:20:25;23.10;1.00
1413;DHT22;701;52.526;13.408;2023-08-08T13:22:51;23.20;1.00
1413;DHT22;701;52.526;13.408;2023-08-08T13:25:17;23.10;1.00
1413;DHT22;701;52.526;13.408;2023-08-08T13:27:44;23.10;1.00
1413;DHT22;701;52.526;13.408;2023-08-08T13:30:11;23.00;1.00
1413;DHT22;701;52.526;13.408;2023-08-08T13:32:37;23.00;1.00
1413;DHT22;701;52.526;13.408;2023-08-08T13:35:04;23.10;1.00
1413;DHT22;701;52.526;13.408;2023-08-08T13:37:30;23.00;1.00
1413;DHT22;701;52.526;13.408;2023-08-08T13:39:56;22.90;1.00
1413;DHT22;701;52.526;13.408;2023-08-08T13:42:21;22.90;1.00
1413;DHT22;701;52.526;13.408;2023-08-08T13:44:47;22.70;1.00
1413;DHT22;701;52.526;13.408;2023-08-08T13:47:13;22.40;1.00
1413;DHT22;701;52.526;13.408;2023-08-08T13:49:38;21.90;4.10
1413;DHT22;701;52.526;13.408;2023-08-08T13:52:04;21.40;5.30
1413;DHT22;701;52.526;13.408;2023-08-08T13:54:30;21.00;6.10
1413;DHT22;701;52.526;13.408;2023-08-08T13:56:56;20.70;7.00
1413;DHT22;701;52.526;13.408;2023-08-08T13:59:22;20.40;7.50
1413;DHT22;701;52.526;13.408;2023-08-08T14:01:47;20.30;8.70
1413;DHT22;701;52.526;13.408;2023-08-08T14:04:13;20.40;8.70
1413;DHT22;701;52.526;13.408;2023-08-08T14:06:39;20.50;8.80
1413;DHT22;701;52.526;13.408;2023-08-08T14:09:05;20.80;8.50
1413;DHT22;701;52.526;13.408;2023-08-08T14:11:31;21.10;7.90
1413;DHT22;701;52.526;13.408;2023-08-08T14:13:56;21.40;7.70
1413;DHT22;701;52.526;13.408;2023-08-08T14:16:22;21.60;6.70
1413;DHT22;701;52.526;13.408;2023-08-08T14:18:48;21.60;6.50
1413;DHT22;701;52.526;13.408;2023-08-08T14:21:15;21.50;5.90
1413;DHT22;701;52.526;13.408;2023-08-08T14:23:40;21.50;5.60
1413;DHT22;701;52.526;13.408;2023-08-08T14:26:06;21.50;5.60
1413;DHT22;701;52.526;13.408;2023-08-08T14:28:32;21.40;5.50
1413;DHT22;701;52.526;13.408;2023-08-08T14:30:58;21.40;5.50
1413;DHT22;701;52.526;13.408;2023-08-08T14:33:24;21.40;5.50
1413;DHT22;701;52.526;13.408;2023-08-08T14:35:49;21.40;5.50
1413;DHT22;701;52.526;13.408;2023-08-08T14:38:15;21.30;5.50
1413;DHT22;701;52.526;13.408;2023-08-08T14:40:41;21.30;5.40
1413;DHT22;701;52.526;13.408;2023-08-08T14:43:07;21.40;5.50
1413;DHT22;701;52.526;13.408;2023-08-08T14:45:37;21.40;5.50
1413;DHT22;701;52.526;13.408;2023-08-08T14:48:04;21.50;5.60
1413;DHT22;701;52.526;13.408;2023-08-08T14:50:31;21.60;5.60
1413;DHT22;701;52.526;13.408;2023-08-08T14:52:57;21.60;5.70
1413;DHT22;701;52.526;13.408;2023-08-08T14:55:23;21.70;5.70
1413;DHT22;701;52.526;13.408;2023-08-08T14:57:48;21.70;5.30
1413;DHT22;701;52.526;13.408;2023-08-08T15:00:14;21.90;5.30
1413;DHT22;701;52.526;13.408;2023-08-08T15:02:40;22.00;5.20
1413;DHT22;701;52.526;13.408;2023-08-08T15:05:06;22.10;4.80
1413;DHT22;701;52.526;13.408;2023-08-08T15:07:32;22.10;4.60
1413;DHT22;701;52.526;13.408;2023-08-08T15:09:57;22.20;4.20
1413;DHT22;701;52.526;13.408;2023-08-08T15:12:23;22.20;3.90
1413;DHT22;701;52.526;13.408;2023-08-08T15:14:49;22.20;3.70
1413;DHT22;701;52.526;13.408;2023-08-08T15:17:16;22.10;3.40
1413;DHT22;701;52.526;13.408;2023-08-08T15:19:42;22.00;3.20
1413;DHT22;701;52.526;13.408;2023-08-08T15:22:08;21.90;3.00
1413;DHT22;701;52.526;13.408;2023-08-08T15:24:34;21.90;2.70
1413;DHT22;701;52.526;13.408;2023-08-08T15:27:02;21.80;2.60
1413;DHT22;701;52.526;13.408;2023-08-08T15:29:28;21.80;2.40
1413;DHT22;701;52.526;13.408;2023-08-08T15:31:54;21.60;2.50
1413;DHT22;701;52.526;13.408;2023-08-08T15:34:19;21.40;3.10
1413;DHT22;701;52.526;13.408;2023-08-08T15:36:45;21.20;4.80
1413;DHT22;701;52.526;13.408;2023-08-08T15:39:11;21.00;5.50
1413;DHT22;701;52.526;13.408;2023-08-08T15:41:37;20.60;7.60
1413;DHT22;701;52.526;13.408;2023-08-08T15:44:02;20.20;10.20
1413;DHT22;701;52.526;13.408;2023-08-08T15:46:28;19.70;10.80
1413;DHT22;701;52.526;13.408;2023-08-08T15:48:54;19.30;11.90
1413;DHT22;701;52.526;13.408;2023-08-08T15:51:20;18.90;13.20
1413;DHT22;701;52.526;13.408;2023-08-08T15:53:46;18.60;13.90
1413;DHT22;701;52.526;13.408;2023-08-08T15:56:11;18.40;14.30
1413;DHT22;701;52.526;13.408;2023-08-08T15:58:37;18.20;15.60
1413;DHT22;701;52.526;13.408;2023-08-08T16:01:04;18.30;15.40
1413;DHT22;701;52.526;13.408;2023-08-08T16:03:30;18.30;15.70
1413;DHT22;701;52.526;13.408;2023-08-08T16:05:58;18.40;15.50
1413;DHT22;701;52.526;13.408;2023-08-08T16:08:23;18.40;15.40
1413;DHT22;701;52.526;13.408;2023-08-08T16:10:50;18.50;15.80